Pella, Idaho
Current Conditions -  °F | °C
As of 10:53 PM on Sunday 19 Oct 2014 (Local Time) from KBYI Reporting Station
Clear Clear  
Wind Chill: 55°   Ceiling: Unl
Heat Index: 55°   Visibility: 10mi
Dew Point: 32°   Wind: 3mph
Humidity: 42%   Direction: 140°SE
Pressure: 29.97"   Gusts: NA
Location:  42.5011°N, 113.814°W
Report Text: KBYI 200453Z AUTO 14003KT 10SM CLR 13/00 A2997 RMK AO2 SLP130 T01280000
Loading
Personal Weather Stations






























Interactive Weather Map New forecast layout! Learn more

10-Day Weather Forecast

Advertisements
Track Severe Weather on mobile